createdAt,value
2022-09-20T00:00:43.157Z,1008.87
2022-09-20T00:01:43.110Z,1008.90
2022-09-20T00:02:43.091Z,1008.86
2022-09-20T00:03:43.038Z,1008.86
2022-09-20T00:04:43.031Z,1008.91
2022-09-20T00:05:43.005Z,1008.85
2022-09-20T00:06:42.997Z,1008.81
2022-09-20T00:07:42.984Z,1008.85
2022-09-20T00:08:42.977Z,1008.96
2022-09-20T00:09:42.963Z,1008.85
2022-09-20T00:10:42.944Z,1008.92
2022-09-20T00:11:42.926Z,1008.91
2022-09-20T00:12:43.647Z,1008.97
2022-09-20T00:13:42.903Z,1008.97
2022-09-20T00:14:42.895Z,1008.91
2022-09-20T00:15:42.873Z,1008.92
2022-09-20T00:16:42.914Z,1008.98
2022-09-20T00:17:42.865Z,1008.91
2022-09-20T00:18:42.832Z,1008.94
2022-09-20T00:19:42.822Z,1008.92
2022-09-20T00:20:42.821Z,1008.91
2022-09-20T00:21:42.793Z,1008.97
2022-09-20T00:22:42.802Z,1008.94
2022-09-20T00:23:42.772Z,1008.97
2022-09-20T00:24:46.813Z,1009.06
2022-09-20T00:25:43.741Z,1008.95
2022-09-20T00:26:42.732Z,1008.99
2022-09-20T00:27:42.730Z,1008.96
2022-09-20T00:28:42.709Z,1008.87
2022-09-20T00:29:42.690Z,1008.96
2022-09-20T00:30:42.681Z,1008.92
2022-09-20T00:31:42.925Z,1008.98
2022-09-20T00:32:42.659Z,1008.89
2022-09-20T00:33:42.640Z,1008.97
2022-09-20T00:34:42.629Z,1008.97
2022-09-20T00:35:42.617Z,1009.04
2022-09-20T00:36:42.609Z,1009.01
2022-09-20T00:37:42.598Z,1008.99
2022-09-20T00:38:42.569Z,1008.99
2022-09-20T00:39:42.559Z,1009.04
2022-09-20T00:40:42.702Z,1008.97
2022-09-20T00:41:42.531Z,1009.01
2022-09-20T00:42:42.530Z,1009.07
2022-09-20T00:43:42.508Z,1009.02
2022-09-20T00:44:42.499Z,1009.02
2022-09-20T00:45:42.505Z,1009.06
2022-09-20T00:46:42.473Z,1009.00
2022-09-20T00:47:42.467Z,1009.03
2022-09-20T00:48:42.446Z,1009.01
2022-09-20T00:49:42.426Z,1009.05
2022-09-20T00:50:42.416Z,1009.02
2022-09-20T00:51:42.396Z,1009.05
2022-09-20T00:52:42.413Z,1009.03
2022-09-20T00:53:42.404Z,1009.05
2022-09-20T00:54:42.373Z,1009.06
2022-09-20T00:55:42.345Z,1009.16
2022-09-20T00:56:42.335Z,1009.06
2022-09-20T00:57:42.327Z,1009.06
2022-09-20T00:58:42.330Z,1009.07
2022-09-20T00:59:42.295Z,1009.09
2022-09-20T01:00:42.316Z,1008.99
2022-09-20T01:01:42.365Z,1009.07
2022-09-20T01:02:42.344Z,1009.06
2022-09-20T01:03:42.245Z,1009.09
2022-09-20T01:04:42.239Z,1009.07
2022-09-20T01:05:42.223Z,1008.99
2022-09-20T01:06:42.223Z,1009.06
2022-09-20T01:07:42.202Z,1009.00
2022-09-20T01:08:42.184Z,1009.06
2022-09-20T01:09:42.163Z,1009.02
2022-09-20T01:10:42.166Z,1009.01
2022-09-20T01:11:42.143Z,1008.99
2022-09-20T01:12:42.142Z,1008.99
2022-09-20T01:13:42.111Z,1009.02
2022-09-20T01:14:42.103Z,1009.03
2022-09-20T01:15:42.082Z,1009.01
2022-09-20T01:16:42.123Z,1009.06
2022-09-20T01:17:42.092Z,1009.02
2022-09-20T01:18:42.053Z,1009.01
2022-09-20T01:19:42.038Z,1008.97
2022-09-20T01:20:42.029Z,1009.00
2022-09-20T01:21:42.010Z,1009.05
2022-09-20T01:22:42.012Z,1009.01
2022-09-20T01:23:41.981Z,1009.04
2022-09-20T01:24:41.969Z,1008.99
2022-09-20T01:25:41.949Z,1008.99
2022-09-20T01:26:41.939Z,1009.01
2022-09-20T01:27:41.941Z,1009.03
2022-09-20T01:28:41.921Z,1008.98
2022-09-20T01:29:41.901Z,1009.03
2022-09-20T01:30:41.902Z,1009.02
2022-09-20T01:31:41.952Z,1008.98
2022-09-20T01:32:41.882Z,1008.97
2022-09-20T01:33:41.910Z,1008.96
2022-09-20T01:34:41.838Z,1008.94
2022-09-20T01:35:41.830Z,1009.02
2022-09-20T01:36:41.809Z,1008.94
2022-09-20T01:37:41.807Z,1008.94
2022-09-20T01:38:41.826Z,1008.98
2022-09-20T01:39:41.778Z,1008.99
2022-09-20T01:40:41.806Z,1009.00
2022-09-20T01:41:41.737Z,1008.99
2022-09-20T01:42:41.737Z,1009.04
2022-09-20T01:43:41.722Z,1009.06
2022-09-20T01:44:41.706Z,1009.05
2022-09-20T01:45:41.729Z,1009.04
2022-09-20T01:46:41.685Z,1009.14
2022-09-20T01:47:41.686Z,1009.13
2022-09-20T01:48:41.659Z,1009.11
2022-09-20T01:49:41.646Z,1009.11
2022-09-20T01:50:41.627Z,1009.14
2022-09-20T01:51:41.615Z,1009.10
2022-09-20T01:52:41.628Z,1009.08
2022-09-20T01:53:41.584Z,1009.04
2022-09-20T01:54:41.586Z,1009.08
2022-09-20T01:55:41.554Z,1009.10
2022-09-20T01:56:41.553Z,1009.06
2022-09-20T01:57:41.543Z,1009.09
2022-09-20T01:58:41.523Z,1009.09
2022-09-20T01:59:41.503Z,1009.11
2022-09-20T02:00:41.523Z,1009.01
2022-09-20T02:01:41.487Z,1008.99
2022-09-20T02:02:41.536Z,1008.99
2022-09-20T02:03:41.452Z,1009.01
2022-09-20T02:04:41.468Z,1009.00
2022-09-20T02:05:41.423Z,1008.94
2022-09-20T02:06:41.426Z,1008.99
2022-09-20T02:07:41.414Z,1009.05
2022-09-20T02:08:41.392Z,1008.96
2022-09-20T02:09:41.371Z,1008.99
2022-09-20T02:10:41.360Z,1008.95
2022-09-20T02:11:41.362Z,1008.93
2022-09-20T02:12:41.355Z,1008.99
2022-09-20T02:13:41.322Z,1008.96
2022-09-20T02:14:41.310Z,1008.95
2022-09-20T02:15:41.301Z,1008.90
2022-09-20T02:16:41.370Z,1008.92
2022-09-20T02:17:41.294Z,1008.99
2022-09-20T02:18:41.264Z,1008.99
2022-09-20T02:19:41.254Z,1008.94
2022-09-20T02:20:41.231Z,1008.93
2022-09-20T02:21:41.228Z,1008.93
2022-09-20T02:22:41.220Z,1008.94
2022-09-20T02:23:41.198Z,1009.00
2022-09-20T02:24:41.178Z,1008.93
2022-09-20T02:25:41.167Z,1008.99
2022-09-20T02:26:41.198Z,1009.00
2022-09-20T02:27:41.157Z,1008.98
2022-09-20T02:28:41.129Z,1009.04
2022-09-20T02:29:41.129Z,1008.95
2022-09-20T02:30:41.106Z,1009.04
2022-09-20T02:31:41.117Z,1009.05
2022-09-20T02:32:41.086Z,1009.05
2022-09-20T02:33:41.073Z,1009.04
2022-09-20T02:34:41.046Z,1009.02
2022-09-20T02:35:41.037Z,1009.01
2022-09-20T02:36:41.027Z,1009.03
2022-09-20T02:37:41.017Z,1009.04
2022-09-20T02:38:41.007Z,1009.03
2022-09-20T02:39:40.986Z,1009.06
2022-09-20T02:40:41.043Z,1009.01
2022-09-20T02:41:40.965Z,1009.06
2022-09-20T02:42:40.967Z,1009.06
2022-09-20T02:43:40.950Z,1009.08
2022-09-20T02:44:40.915Z,1009.09
2022-09-20T02:45:40.943Z,1009.15
2022-09-20T02:46:40.897Z,1009.07
2022-09-20T02:47:40.897Z,1009.06
2022-09-20T02:48:40.877Z,1009.10
2022-09-20T02:49:40.857Z,1009.09
2022-09-20T02:50:40.845Z,1009.08
2022-09-20T02:51:40.828Z,1009.08
2022-09-20T02:52:40.843Z,1009.05
2022-09-20T02:53:40.814Z,1009.09
2022-09-20T02:54:40.796Z,1009.03
2022-09-20T02:55:40.782Z,1009.03
2022-09-20T02:56:40.773Z,1009.06
2022-09-20T02:57:40.762Z,1009.03
2022-09-20T02:58:40.741Z,1008.95
2022-09-20T02:59:40.732Z,1009.06
2022-09-20T03:00:40.724Z,1009.06
2022-09-20T03:01:40.785Z,1009.08
2022-09-20T03:02:40.772Z,1009.00
2022-09-20T03:03:40.671Z,1009.04
2022-09-20T03:04:40.652Z,1009.07
2022-09-20T03:05:40.704Z,1009.04
2022-09-20T03:06:40.631Z,1009.09
2022-09-20T03:07:40.630Z,1009.03
2022-09-20T03:08:40.600Z,1009.10
2022-09-20T03:09:40.590Z,1009.01
2022-09-20T03:10:40.591Z,1009.04
2022-09-20T03:11:40.559Z,1009.07
2022-09-20T03:12:40.569Z,1009.09
2022-09-20T03:13:40.539Z,1009.03
2022-09-20T03:14:40.539Z,1009.00
2022-09-20T03:15:40.511Z,1009.04
2022-09-20T03:16:40.550Z,1009.01
2022-09-20T03:17:40.576Z,1009.00
2022-09-20T03:18:40.487Z,1009.04
2022-09-20T03:19:40.459Z,1009.01
2022-09-20T03:20:40.451Z,1009.03
2022-09-20T03:21:40.437Z,1008.96
2022-09-20T03:22:40.437Z,1009.02
2022-09-20T03:23:40.407Z,1009.01
2022-09-20T03:24:40.397Z,1009.05
2022-09-20T03:25:40.376Z,1008.96
2022-09-20T03:26:40.376Z,1008.94
2022-09-20T03:27:40.372Z,1009.03
2022-09-20T03:28:40.337Z,1009.05
2022-09-20T03:29:40.335Z,1009.08
2022-09-20T03:30:40.316Z,1009.01
2022-09-20T03:31:40.323Z,1009.04
2022-09-20T03:32:40.295Z,1009.12
2022-09-20T03:33:40.278Z,1009.06
2022-09-20T03:34:40.265Z,1009.03
2022-09-20T03:35:40.265Z,1009.04
2022-09-20T03:36:40.233Z,1009.06
2022-09-20T03:37:40.238Z,1009.15
2022-09-20T03:38:40.205Z,1009.14
2022-09-20T03:39:40.207Z,1009.09
2022-09-20T03:40:45.589Z,1009.12
2022-09-20T03:41:41.183Z,1009.12
2022-09-20T03:42:40.177Z,1009.03
2022-09-20T03:43:40.144Z,1009.05
2022-09-20T03:44:40.130Z,1009.03
2022-09-20T03:45:40.174Z,1009.05
2022-09-20T03:46:40.103Z,1009.04
2022-09-20T03:47:40.103Z,1009.02
2022-09-20T03:48:40.072Z,1009.02
2022-09-20T03:49:40.062Z,1009.03
2022-09-20T03:50:40.054Z,1009.05
2022-09-20T03:51:40.047Z,1009.01
2022-09-20T03:52:40.102Z,1008.98
2022-09-20T03:53:40.022Z,1008.93
2022-09-20T03:54:39.992Z,1008.99
2022-09-20T03:55:39.990Z,1008.92
2022-09-20T03:56:39.971Z,1009.00
2022-09-20T03:57:39.971Z,1008.97
2022-09-20T03:58:39.942Z,1008.96
2022-09-20T03:59:39.929Z,1008.95
2022-09-20T04:00:39.929Z,1008.96
2022-09-20T04:01:39.972Z,1008.99
2022-09-20T04:02:39.992Z,1009.01
2022-09-20T04:03:39.888Z,1008.96
2022-09-20T04:04:39.869Z,1008.97
2022-09-20T04:05:39.850Z,1009.01
2022-09-20T04:06:39.837Z,1008.99
2022-09-20T04:07:39.848Z,1008.97
2022-09-20T04:08:40.467Z,1008.94
2022-09-20T04:09:39.802Z,1008.99
2022-09-20T04:10:39.787Z,1009.00
2022-09-20T04:11:39.778Z,1008.98
2022-09-20T04:12:39.768Z,1008.97
2022-09-20T04:13:39.760Z,1009.04
2022-09-20T04:14:39.737Z,1009.06
2022-09-20T04:15:39.726Z,1009.03
2022-09-20T04:16:39.808Z,1008.99
2022-09-20T04:17:39.704Z,1009.02
2022-09-20T04:18:39.677Z,1008.96
2022-09-20T04:19:39.676Z,1008.99
2022-09-20T04:20:39.659Z,1009.04
2022-09-20T04:21:39.649Z,1009.02
2022-09-20T04:22:39.635Z,1009.06
2022-09-20T04:23:39.625Z,1009.04
2022-09-20T04:24:39.605Z,1009.04
2022-09-20T04:25:43.638Z,1009.13
2022-09-20T04:26:39.586Z,1008.96
2022-09-20T04:27:39.584Z,1009.04
2022-09-20T04:28:39.548Z,1009.01
2022-09-20T04:29:39.534Z,1009.06
2022-09-20T04:30:39.524Z,1009.07
2022-09-20T04:31:39.561Z,1009.03
2022-09-20T04:32:39.521Z,1009.05
2022-09-20T04:33:39.483Z,1009.07
2022-09-20T04:34:39.476Z,1009.09
2022-09-20T04:35:39.465Z,1009.10
2022-09-20T04:36:39.455Z,1009.12
2022-09-20T04:37:39.454Z,1009.17
2022-09-20T04:38:39.412Z,1009.16
2022-09-20T04:39:39.419Z,1009.07
2022-09-20T04:40:39.455Z,1009.11
2022-09-20T04:41:39.386Z,1009.08
2022-09-20T04:42:39.391Z,1009.13
2022-09-20T04:43:39.361Z,1009.15
2022-09-20T04:44:39.356Z,1009.16
2022-09-20T04:45:39.397Z,1009.05
2022-09-20T04:46:39.311Z,1009.13
2022-09-20T04:47:39.322Z,1009.12
2022-09-20T04:48:39.280Z,1009.16
2022-09-20T04:49:39.270Z,1009.20
2022-09-20T04:50:39.261Z,1009.16
2022-09-20T04:51:39.249Z,1009.17
2022-09-20T04:52:39.249Z,1009.20
2022-09-20T04:53:39.221Z,1009.29
2022-09-20T04:54:39.208Z,1009.16
2022-09-20T04:55:39.208Z,1009.26
2022-09-20T04:56:39.185Z,1009.23
2022-09-20T04:57:39.181Z,1009.24
2022-09-20T04:58:39.158Z,1009.24
2022-09-20T04:59:39.151Z,1009.26
2022-09-20T05:00:39.142Z,1009.29
2022-09-20T05:01:39.160Z,1009.24
2022-09-20T05:02:39.150Z,1009.28
2022-09-20T05:03:39.087Z,1009.20
2022-09-20T05:04:39.078Z,1009.28
2022-09-20T05:05:39.067Z,1009.22
2022-09-20T05:06:39.047Z,1009.23
2022-09-20T05:07:39.057Z,1009.23
2022-09-20T05:08:39.024Z,1009.25
2022-09-20T05:09:39.008Z,1009.28
2022-09-20T05:10:38.996Z,1009.31
2022-09-20T05:11:38.998Z,1009.26
2022-09-20T05:12:38.988Z,1009.30
2022-09-20T05:13:38.956Z,1009.28
2022-09-20T05:14:38.936Z,1009.32
2022-09-20T05:15:38.934Z,1009.31
2022-09-20T05:16:40.746Z,1009.28
2022-09-20T05:17:38.914Z,1009.27
2022-09-20T05:18:38.904Z,1009.31
2022-09-20T05:19:38.874Z,1009.26
2022-09-20T05:20:38.864Z,1009.29
2022-09-20T05:21:38.853Z,1009.33
2022-09-20T05:22:38.844Z,1009.31
2022-09-20T05:23:38.823Z,1009.35
2022-09-20T05:24:38.816Z,1009.34
2022-09-20T05:25:38.792Z,1009.36
2022-09-20T05:26:38.815Z,1009.33
2022-09-20T05:27:38.787Z,1009.33
2022-09-20T05:28:38.811Z,1009.38
2022-09-20T05:29:38.750Z,1009.34
2022-09-20T05:30:38.733Z,1009.27
2022-09-20T05:31:38.774Z,1009.31
2022-09-20T05:32:38.722Z,1009.37
2022-09-20T05:33:38.699Z,1009.34
2022-09-20T05:34:38.702Z,1009.30
2022-09-20T05:35:38.660Z,1009.34
2022-09-20T05:36:38.661Z,1009.38
2022-09-20T05:37:38.650Z,1009.39
2022-09-20T05:38:38.640Z,1009.40
2022-09-20T05:39:38.621Z,1009.44
2022-09-20T05:40:38.638Z,1009.44
2022-09-20T05:41:38.598Z,1009.38
2022-09-20T05:42:38.589Z,1009.44
2022-09-20T05:43:38.559Z,1009.38
2022-09-20T05:44:38.559Z,1009.42
2022-09-20T05:45:38.568Z,1009.43
2022-09-20T05:46:38.519Z,1009.46
2022-09-20T05:47:38.537Z,1009.45
2022-09-20T05:48:38.497Z,1009.52
2022-09-20T05:49:38.499Z,1009.51
2022-09-20T05:50:38.560Z,1009.54
2022-09-20T05:51:38.458Z,1009.50
2022-09-20T05:52:38.527Z,1009.54
2022-09-20T05:53:38.426Z,1009.55
2022-09-20T05:54:38.418Z,1009.52
2022-09-20T05:55:38.396Z,1009.56
2022-09-20T05:56:38.396Z,1009.56
2022-09-20T05:57:38.388Z,1009.57
2022-09-20T05:58:38.374Z,1009.54
2022-09-20T05:59:38.366Z,1009.48
2022-09-20T06:00:38.345Z,1009.67
2022-09-20T06:01:38.327Z,1009.45
2022-09-20T06:02:38.400Z,1009.54
2022-09-20T06:03:38.295Z,1009.48
2022-09-20T06:04:38.284Z,1009.60
2022-09-20T06:05:38.275Z,1009.48
2022-09-20T06:06:38.264Z,1009.53
2022-09-20T06:07:38.265Z,1009.53
2022-09-20T06:08:38.243Z,1009.51
2022-09-20T06:09:38.223Z,1009.52
2022-09-20T06:10:38.223Z,1009.60
2022-09-20T06:11:38.204Z,1009.58
2022-09-20T06:12:38.183Z,1009.52
2022-09-20T06:13:38.188Z,1009.55
2022-09-20T06:14:38.154Z,1009.56
2022-09-20T06:15:38.143Z,1009.58
2022-09-20T06:16:38.170Z,1009.60
2022-09-20T06:17:38.115Z,1009.58
2022-09-20T06:18:38.112Z,1009.60
2022-09-20T06:19:38.091Z,1009.63
2022-09-20T06:20:38.093Z,1009.54
2022-09-20T06:21:38.062Z,1009.56
2022-09-20T06:22:38.061Z,1009.63
2022-09-20T06:23:38.052Z,1009.66
2022-09-20T06:24:38.021Z,1009.63
2022-09-20T06:25:38.019Z,1009.61
2022-09-20T06:26:38.004Z,1009.71
2022-09-20T06:27:37.992Z,1009.65
2022-09-20T06:28:38.002Z,1009.64
2022-09-20T06:29:37.952Z,1009.67
2022-09-20T06:30:38.008Z,1009.70
2022-09-20T06:31:37.930Z,1009.76
2022-09-20T06:32:37.920Z,1009.74
2022-09-20T06:33:37.919Z,1009.81
2022-09-20T06:34:37.899Z,1009.75
2022-09-20T06:35:37.881Z,1009.71
2022-09-20T06:36:37.868Z,1009.81
2022-09-20T06:37:37.868Z,1009.79
2022-09-20T06:38:37.851Z,1009.78
2022-09-20T06:39:37.839Z,1009.70
2022-09-20T06:40:37.864Z,1009.80
2022-09-20T06:41:37.797Z,1009.78
2022-09-20T06:42:37.787Z,1009.79
2022-09-20T06:43:37.777Z,1009.79
2022-09-20T06:44:37.768Z,1009.80
2022-09-20T06:45:37.785Z,1009.72
2022-09-20T06:46:37.761Z,1009.77
2022-09-20T06:47:38.900Z,1009.77
2022-09-20T06:48:37.706Z,1009.74
2022-09-20T06:49:37.705Z,1009.80
2022-09-20T06:50:37.687Z,1009.68
2022-09-20T06:51:37.693Z,1009.71
2022-09-20T06:52:37.658Z,1009.74
2022-09-20T06:53:37.645Z,1009.81
2022-09-20T06:54:37.660Z,1009.77
2022-09-20T06:55:37.617Z,1009.78
2022-09-20T06:56:37.602Z,1009.78
2022-09-20T06:57:37.584Z,1009.78
2022-09-20T06:58:37.576Z,1009.78
2022-09-20T06:59:37.714Z,1009.87
2022-09-20T07:00:37.558Z,1009.89
2022-09-20T07:01:37.606Z,1010.00
2022-09-20T07:02:37.576Z,1009.94
2022-09-20T07:03:37.503Z,1009.95
2022-09-20T07:04:37.513Z,1010.00
2022-09-20T07:05:37.484Z,1009.97
2022-09-20T07:06:37.474Z,1009.98
2022-09-20T07:07:37.454Z,1010.03
2022-09-20T07:08:37.493Z,1010.03
2022-09-20T07:09:37.442Z,1010.08
2022-09-20T07:10:37.431Z,1010.02
2022-09-20T07:11:37.406Z,1010.04
2022-09-20T07:12:37.392Z,1009.98
2022-09-20T07:13:37.385Z,1010.02
2022-09-20T07:14:37.387Z,1009.95
2022-09-20T07:15:37.359Z,1009.96
2022-09-20T07:16:37.403Z,1009.99
2022-09-20T07:17:37.320Z,1010.06
2022-09-20T07:18:37.321Z,1010.04
2022-09-20T07:19:37.326Z,1010.08
2022-09-20T07:20:37.309Z,1010.11
2022-09-20T07:21:37.279Z,1010.13
2022-09-20T07:22:37.261Z,1010.14
2022-09-20T07:23:37.240Z,1010.10
2022-09-20T07:24:37.261Z,1010.08
2022-09-20T07:25:37.219Z,1010.13
2022-09-20T07:26:37.210Z,1010.16
2022-09-20T07:27:37.190Z,1010.12
2022-09-20T07:28:37.179Z,1010.05
2022-09-20T07:29:37.191Z,1010.04
2022-09-20T07:30:37.171Z,1010.03
2022-09-20T07:31:37.167Z,1010.14
2022-09-20T07:32:37.219Z,1010.06
2022-09-20T07:33:37.123Z,1010.08
2022-09-20T07:34:37.125Z,1010.15
2022-09-20T07:35:37.096Z,1010.06
2022-09-20T07:36:37.085Z,1010.09
2022-09-20T07:37:37.364Z,1010.09
2022-09-20T07:38:37.072Z,1010.13
2022-09-20T07:39:37.055Z,1010.10
2022-09-20T07:40:37.101Z,1010.16
2022-09-20T07:41:37.006Z,1010.09
2022-09-20T07:42:36.999Z,1010.08
2022-09-20T07:43:36.996Z,1010.12
2022-09-20T07:44:36.977Z,1010.11
2022-09-20T07:45:36.979Z,1010.09
2022-09-20T07:46:36.935Z,1010.12
2022-09-20T07:47:36.930Z,1010.09
2022-09-20T07:48:36.920Z,1010.05
2022-09-20T07:49:36.925Z,1010.06
2022-09-20T07:50:36.885Z,1010.05
2022-09-20T07:51:36.883Z,1010.08
2022-09-20T07:52:36.866Z,1010.08
2022-09-20T07:53:36.857Z,1010.10
2022-09-20T07:54:36.884Z,1009.99
2022-09-20T07:55:36.825Z,1010.03
2022-09-20T07:56:36.817Z,1010.08
2022-09-20T07:57:36.800Z,1010.04
2022-09-20T07:58:36.791Z,1010.09
2022-09-20T07:59:36.784Z,1010.09
2022-09-20T08:00:36.771Z,1010.09
2022-09-20T08:01:36.787Z,1010.08
2022-09-20T08:02:36.800Z,1010.10
2022-09-20T08:03:36.732Z,1010.22
2022-09-20T08:04:36.718Z,1010.26
2022-09-20T08:05:36.694Z,1010.20
2022-09-20T08:06:36.673Z,1010.15
2022-09-20T08:07:36.666Z,1010.23
2022-09-20T08:08:36.724Z,1010.23
2022-09-20T08:09:36.668Z,1010.21
2022-09-20T08:10:36.624Z,1010.17
2022-09-20T08:11:36.612Z,1010.14
2022-09-20T08:14:37.611Z,1010.17
2022-09-20T08:15:36.561Z,1010.28
2022-09-20T08:16:36.625Z,1010.18
2022-09-20T08:17:36.535Z,1010.20
2022-09-20T08:18:36.521Z,1010.17
2022-09-20T08:19:36.520Z,1010.22
2022-09-20T08:20:36.522Z,1010.19
2022-09-20T08:21:36.479Z,1010.19
2022-09-20T08:22:36.475Z,1010.13
2022-09-20T08:23:36.463Z,1010.16
2022-09-20T08:24:36.469Z,1010.20
2022-09-20T08:25:36.434Z,1010.13
2022-09-20T08:26:36.428Z,1010.13
2022-09-20T08:27:36.418Z,1010.14
2022-09-20T08:28:36.399Z,1010.17
2022-09-20T08:29:36.399Z,1010.20
2022-09-20T08:30:36.389Z,1010.16
2022-09-20T08:31:36.415Z,1010.20
2022-09-20T08:32:36.348Z,1010.21
2022-09-20T08:33:36.346Z,1010.24
2022-09-20T08:34:36.337Z,1010.28
2022-09-20T08:35:38.072Z,1010.20
2022-09-20T08:36:37.132Z,1010.26
2022-09-20T08:37:36.268Z,1010.23
2022-09-20T08:40:37.273Z,1010.32
2022-09-20T08:41:36.215Z,1010.31
2022-09-20T08:42:42.010Z,1010.31
2022-09-20T08:43:37.206Z,1010.31
2022-09-20T08:44:36.197Z,1010.29
2022-09-20T08:45:36.184Z,1010.26
2022-09-20T08:46:36.220Z,1010.33
2022-09-20T08:47:36.141Z,1010.27
2022-09-20T08:48:36.127Z,1010.29
2022-09-20T08:49:36.124Z,1010.27
2022-09-20T08:50:36.104Z,1010.33
2022-09-20T08:51:36.092Z,1010.28
2022-09-20T08:52:36.642Z,1010.37
2022-09-20T08:53:36.061Z,1010.38
2022-09-20T08:54:36.063Z,1010.38
2022-09-20T08:55:37.324Z,1010.40
2022-09-20T08:56:36.032Z,1010.40
2022-09-20T08:57:36.017Z,1010.48
2022-09-20T08:58:36.013Z,1010.43
2022-09-20T08:59:36.012Z,1010.42
2022-09-20T09:00:35.976Z,1010.48
2022-09-20T09:01:35.962Z,1010.39
2022-09-20T09:02:35.999Z,1010.41
2022-09-20T09:03:35.934Z,1010.51
2022-09-20T09:04:35.914Z,1010.42
2022-09-20T09:05:35.921Z,1010.40
2022-09-20T09:06:35.896Z,1010.45
2022-09-20T09:07:35.895Z,1010.37
2022-09-20T09:08:38.858Z,1010.38
2022-09-20T09:09:37.597Z,1010.36
2022-09-20T09:10:35.862Z,1010.33
2022-09-20T09:11:35.831Z,1010.42
2022-09-20T09:12:35.832Z,1010.38
2022-09-20T09:13:35.801Z,1010.37
2022-09-20T09:14:35.824Z,1010.47
2022-09-20T09:15:35.877Z,1010.46
2022-09-20T09:16:36.444Z,1010.46
2022-09-20T09:17:35.752Z,1010.41
2022-09-20T09:18:35.752Z,1010.41
2022-09-20T09:19:35.734Z,1010.47
2022-09-20T09:20:35.734Z,1010.40
2022-09-20T09:21:35.699Z,1010.45
2022-09-20T09:22:35.690Z,1010.53
2022-09-20T09:23:35.689Z,1010.50
2022-09-20T09:24:35.672Z,1010.53
2022-09-20T09:25:35.660Z,1010.48
2022-09-20T09:26:35.655Z,1010.51
2022-09-20T09:27:35.629Z,1010.48
2022-09-20T09:28:35.609Z,1010.37
2022-09-20T09:29:35.598Z,1010.43
2022-09-20T09:30:35.609Z,1010.44
2022-09-20T09:31:35.610Z,1010.45
2022-09-20T09:32:35.571Z,1010.42
2022-09-20T09:33:35.548Z,1010.46
2022-09-20T09:34:35.556Z,1010.39
2022-09-20T09:35:35.541Z,1010.48
2022-09-20T09:36:35.516Z,1010.43
2022-09-20T09:37:35.536Z,1010.46
2022-09-20T09:38:35.519Z,1010.49
2022-09-20T09:39:35.467Z,1010.51
2022-09-20T09:40:35.538Z,1010.46
2022-09-20T09:41:35.448Z,1010.43
2022-09-20T09:42:35.466Z,1010.45
2022-09-20T09:43:35.441Z,1010.49
2022-09-20T09:44:35.426Z,1010.46
2022-09-20T09:45:35.467Z,1010.41
2022-09-20T09:46:35.385Z,1010.45
2022-09-20T09:47:35.389Z,1010.42
2022-09-20T09:48:38.134Z,1010.46
2022-09-20T09:49:35.345Z,1010.51
2022-09-20T09:50:35.359Z,1010.44
2022-09-20T09:51:35.317Z,1010.42
2022-09-20T09:52:35.334Z,1010.39
2022-09-20T09:53:35.285Z,1010.43
2022-09-20T09:54:35.285Z,1010.44
2022-09-20T09:55:35.277Z,1010.42
2022-09-20T09:56:35.255Z,1010.43
2022-09-20T09:57:35.259Z,1010.35
2022-09-20T09:58:35.233Z,1010.37
2022-09-20T09:59:35.219Z,1010.38
2022-09-20T10:00:35.224Z,1010.38
2022-09-20T10:01:35.266Z,1010.36
2022-09-20T10:02:35.252Z,1010.47
2022-09-20T10:03:35.163Z,1010.36
2022-09-20T10:04:35.153Z,1010.37
2022-09-20T10:05:35.243Z,1010.39
2022-09-20T10:06:35.183Z,1010.34
2022-09-20T10:07:35.183Z,1010.38
2022-09-20T10:08:35.153Z,1010.34
2022-09-20T10:09:35.123Z,1010.41
2022-09-20T10:10:35.090Z,1010.37
2022-09-20T10:11:35.065Z,1010.36
2022-09-20T10:12:35.046Z,1010.32
2022-09-20T10:13:39.654Z,1010.33
2022-09-20T10:14:36.030Z,1010.35
2022-09-20T10:15:35.043Z,1010.35
2022-09-20T10:16:35.087Z,1010.37
2022-09-20T10:17:34.997Z,1010.33
2022-09-20T10:18:34.982Z,1010.33
2022-09-20T10:19:34.970Z,1010.34
2022-09-20T10:20:35.093Z,1010.32
2022-09-20T10:21:34.960Z,1010.38
2022-09-20T10:22:34.927Z,1010.38
2022-09-20T10:23:58.996Z,1010.30
2022-09-20T10:24:35.915Z,1010.34
2022-09-20T10:25:34.901Z,1010.34
2022-09-20T10:26:34.872Z,1010.32
2022-09-20T10:27:34.860Z,1010.32
2022-09-20T10:28:34.852Z,1010.32
2022-09-20T10:29:34.831Z,1010.33
2022-09-20T10:30:34.879Z,1010.25
2022-09-20T10:31:34.869Z,1010.26
2022-09-20T10:32:34.800Z,1010.39
2022-09-20T10:33:34.789Z,1010.37
2022-09-20T10:34:34.770Z,1010.38
2022-09-20T10:35:34.770Z,1010.35
2022-09-20T10:36:34.750Z,1010.43
2022-09-20T10:37:34.729Z,1010.31
2022-09-20T10:38:34.727Z,1010.34
2022-09-20T10:39:34.700Z,1010.29
2022-09-20T10:40:34.848Z,1010.44
2022-09-20T10:41:34.678Z,1010.37
2022-09-20T10:42:34.678Z,1010.42
2022-09-20T10:43:34.656Z,1010.37
2022-09-20T10:44:34.648Z,1010.37
2022-09-20T10:46:08.359Z,1010.31
2022-09-20T10:46:35.673Z,1010.30
2022-09-20T10:47:34.597Z,1010.39
2022-09-20T10:48:34.617Z,1010.32
2022-09-20T10:49:34.569Z,1010.32
2022-09-20T10:50:34.578Z,1010.31
2022-09-20T10:51:34.560Z,1010.28
2022-09-20T10:52:34.545Z,1010.27
2022-09-20T10:53:34.526Z,1010.29
2022-09-20T10:54:34.516Z,1010.29
2022-09-20T10:55:34.509Z,1010.28
2022-09-20T10:56:34.492Z,1010.28
2022-09-20T10:57:34.526Z,1010.38
2022-09-20T10:58:34.456Z,1010.30
2022-09-20T10:59:34.457Z,1010.35
2022-09-20T11:00:34.447Z,1010.28
2022-09-20T11:01:34.493Z,1010.29
2022-09-20T11:02:34.455Z,1010.29
2022-09-20T11:03:34.405Z,1010.32
2022-09-20T11:04:34.385Z,1010.27
2022-09-20T11:05:34.377Z,1010.26
2022-09-20T11:06:34.359Z,1010.32
2022-09-20T11:07:34.345Z,1010.29
2022-09-20T11:08:34.332Z,1010.37
2022-09-20T11:09:34.325Z,1010.33
2022-09-20T11:10:34.314Z,1010.33
2022-09-20T11:11:34.293Z,1010.36
2022-09-20T11:12:34.280Z,1010.36
2022-09-20T11:13:34.261Z,1010.39
2022-09-20T11:14:34.266Z,1010.42
2022-09-20T11:15:34.266Z,1010.34
2022-09-20T11:16:34.284Z,1010.42
2022-09-20T11:17:34.205Z,1010.37
2022-09-20T11:18:34.194Z,1010.31
2022-09-20T11:19:34.191Z,1010.30
2022-09-20T11:20:34.195Z,1010.35
2022-09-20T11:21:34.164Z,1010.33
2022-09-20T11:22:34.144Z,1010.34
2022-09-20T11:23:34.135Z,1010.42
2022-09-20T11:24:34.124Z,1010.39
2022-09-20T11:25:34.122Z,1010.32
2022-09-20T11:26:34.086Z,1010.32
2022-09-20T11:27:34.092Z,1010.36
2022-09-20T11:28:34.061Z,1010.41
2022-09-20T11:29:34.055Z,1010.37
2022-09-20T11:30:34.042Z,1010.41
2022-09-20T11:31:34.113Z,1010.42
2022-09-20T11:32:34.014Z,1010.44
2022-09-20T11:33:36.954Z,1010.46
2022-09-20T11:34:34.971Z,1010.41
2022-09-20T11:35:33.993Z,1010.47
2022-09-20T11:36:33.955Z,1010.48
2022-09-20T11:37:33.932Z,1010.46
2022-09-20T11:38:33.921Z,1010.39
2022-09-20T11:39:33.916Z,1010.39
2022-09-20T11:40:33.933Z,1010.40
2022-09-20T11:41:33.901Z,1010.41
2022-09-20T11:42:33.871Z,1010.53
2022-09-20T11:43:33.869Z,1010.52
2022-09-20T11:44:33.844Z,1010.45
2022-09-20T11:45:33.863Z,1010.45
2022-09-20T11:46:33.815Z,1010.47
2022-09-20T11:47:56.097Z,1010.47
2022-09-20T11:48:34.794Z,1010.47
2022-09-20T11:49:33.780Z,1010.47
2022-09-20T11:50:33.771Z,1010.46
2022-09-20T11:51:33.753Z,1010.49
2022-09-20T11:52:33.731Z,1010.39
2022-09-20T11:53:36.780Z,1010.39
2022-09-20T11:54:33.708Z,1010.40
2022-09-20T11:55:33.699Z,1010.47
2022-09-20T11:56:33.680Z,1010.49
2022-09-20T11:57:33.681Z,1010.44
2022-09-20T11:58:33.650Z,1010.41
2022-09-20T11:59:33.638Z,1010.41
2022-09-20T12:00:33.650Z,1010.42
2022-09-20T12:01:33.612Z,1010.41
2022-09-20T12:02:33.672Z,1010.49
2022-09-20T12:03:33.670Z,1010.45
2022-09-20T12:04:34.290Z,1010.40
2022-09-20T12:05:33.568Z,1010.44
2022-09-20T12:06:33.539Z,1010.45
2022-09-20T12:07:33.528Z,1010.38
2022-09-20T12:08:33.528Z,1010.41
2022-09-20T12:09:33.509Z,1010.37